sensor_id;sensor_type;location;lat;lon;timestamp;P1;durP1;ratioP1;P2;durP2;ratioP2
39958;SDS011;25639;53.634;9.880;2023-07-22T00:00:33;14.93;;;9.25;;
39958;SDS011;25639;53.634;9.880;2023-07-22T00:02:58;16.95;;;8.82;;
39958;SDS011;25639;53.634;9.880;2023-07-22T00:05:24;13.52;;;9.23;;
39958;SDS011;25639;53.634;9.880;2023-07-22T00:07:50;23.77;;;9.57;;
39958;SDS011;25639;53.634;9.880;2023-07-22T00:10:15;14.85;;;9.45;;
39958;SDS011;25639;53.634;9.880;2023-07-22T00:12:46;16.98;;;9.27;;
39958;SDS011;25639;53.634;9.880;2023-07-22T00:15:11;14.57;;;9.00;;
39958;SDS011;25639;53.634;9.880;2023-07-22T00:17:37;14.65;;;9.02;;
39958;SDS011;25639;53.634;9.880;2023-07-22T00:20:06;17.75;;;10.63;;
39958;SDS011;25639;53.634;9.880;2023-07-22T00:22:35;15.68;;;9.23;;
39958;SDS011;25639;53.634;9.880;2023-07-22T00:25:01;15.95;;;9.75;;
39958;SDS011;25639;53.634;9.880;2023-07-22T00:27:27;20.35;;;10.27;;
39958;SDS011;25639;53.634;9.880;2023-07-22T00:29:52;19.98;;;11.23;;
39958;SDS011;25639;53.634;9.880;2023-07-22T00:32:17;20.30;;;11.07;;
39958;SDS011;25639;53.634;9.880;2023-07-22T00:34:42;20.88;;;10.77;;
39958;SDS011;25639;53.634;9.880;2023-07-22T00:37:08;21.42;;;9.60;;
39958;SDS011;25639;53.634;9.880;2023-07-22T00:39:33;18.65;;;9.60;;
39958;SDS011;25639;53.634;9.880;2023-07-22T00:41:59;22.05;;;10.13;;
39958;SDS011;25639;53.634;9.880;2023-07-22T00:44:24;16.38;;;8.88;;
39958;SDS011;25639;53.634;9.880;2023-07-22T00:46:50;19.13;;;9.27;;
39958;SDS011;25639;53.634;9.880;2023-07-22T00:49:20;18.67;;;9.65;;
39958;SDS011;25639;53.634;9.880;2023-07-22T00:51:45;17.52;;;9.85;;
39958;SDS011;25639;53.634;9.880;2023-07-22T00:54:10;18.30;;;10.05;;
39958;SDS011;25639;53.634;9.880;2023-07-22T00:56:36;15.82;;;9.52;;
39958;SDS011;25639;53.634;9.880;2023-07-22T00:59:05;17.73;;;9.20;;
39958;SDS011;25639;53.634;9.880;2023-07-22T01:01:34;15.82;;;9.20;;
39958;SDS011;25639;53.634;9.880;2023-07-22T01:03:59;18.73;;;10.23;;
39958;SDS011;25639;53.634;9.880;2023-07-22T01:06:29;18.67;;;10.13;;
39958;SDS011;25639;53.634;9.880;2023-07-22T01:08:56;16.98;;;9.93;;
39958;SDS011;25639;53.634;9.880;2023-07-22T01:11:23;18.77;;;10.93;;
39958;SDS011;25639;53.634;9.880;2023-07-22T01:13:49;18.95;;;10.00;;
39958;SDS011;25639;53.634;9.880;2023-07-22T01:16:14;19.13;;;10.40;;
39958;SDS011;25639;53.634;9.880;2023-07-22T01:18:39;20.20;;;10.50;;
39958;SDS011;25639;53.634;9.880;2023-07-22T01:21:07;17.83;;;10.63;;
39958;SDS011;25639;53.634;9.880;2023-07-22T01:23:34;19.15;;;10.63;;
39958;SDS011;25639;53.634;9.880;2023-07-22T01:26:00;20.13;;;10.75;;
39958;SDS011;25639;53.634;9.880;2023-07-22T01:28:27;16.75;;;9.90;;
39958;SDS011;25639;53.634;9.880;2023-07-22T01:30:52;20.83;;;10.55;;
39958;SDS011;25639;53.634;9.880;2023-07-22T01:33:17;18.98;;;10.15;;
39958;SDS011;25639;53.634;9.880;2023-07-22T01:35:43;21.13;;;10.55;;
39958;SDS011;25639;53.634;9.880;2023-07-22T01:38:08;18.42;;;9.95;;
39958;SDS011;25639;53.634;9.880;2023-07-22T01:40:39;21.25;;;9.95;;
39958;SDS011;25639;53.634;9.880;2023-07-22T01:43:04;17.20;;;9.90;;
39958;SDS011;25639;53.634;9.880;2023-07-22T01:45:30;16.38;;;9.25;;
39958;SDS011;25639;53.634;9.880;2023-07-22T01:47:55;17.50;;;9.35;;
39958;SDS011;25639;53.634;9.880;2023-07-22T01:50:20;20.33;;;9.50;;
39958;SDS011;25639;53.634;9.880;2023-07-22T01:52:49;19.60;;;9.88;;
39958;SDS011;25639;53.634;9.880;2023-07-22T01:55:14;17.85;;;9.40;;
39958;SDS011;25639;53.634;9.880;2023-07-22T01:57:39;15.40;;;9.32;;
39958;SDS011;25639;53.634;9.880;2023-07-22T02:00:05;19.38;;;9.35;;
39958;SDS011;25639;53.634;9.880;2023-07-22T02:02:32;17.15;;;9.40;;
39958;SDS011;25639;53.634;9.880;2023-07-22T02:04:57;17.77;;;9.63;;
39958;SDS011;25639;53.634;9.880;2023-07-22T02:07:23;18.20;;;8.23;;
39958;SDS011;25639;53.634;9.880;2023-07-22T02:09:51;15.15;;;8.43;;
39958;SDS011;25639;53.634;9.880;2023-07-22T02:12:17;20.08;;;8.82;;
39958;SDS011;25639;53.634;9.880;2023-07-22T02:14:42;16.63;;;7.78;;
39958;SDS011;25639;53.634;9.880;2023-07-22T02:17:08;19.27;;;8.38;;
39958;SDS011;25639;53.634;9.880;2023-07-22T02:19:34;19.50;;;8.63;;
39958;SDS011;25639;53.634;9.880;2023-07-22T02:21:59;15.60;;;8.20;;
39958;SDS011;25639;53.634;9.880;2023-07-22T02:24:24;16.55;;;8.57;;
39958;SDS011;25639;53.634;9.880;2023-07-22T02:26:50;16.52;;;7.45;;
39958;SDS011;25639;53.634;9.880;2023-07-22T02:29:15;18.55;;;8.75;;
39958;SDS011;25639;53.634;9.880;2023-07-22T02:31:41;16.15;;;7.20;;
39958;SDS011;25639;53.634;9.880;2023-07-22T02:34:06;17.85;;;8.25;;
39958;SDS011;25639;53.634;9.880;2023-07-22T02:36:31;16.23;;;7.93;;
39958;SDS011;25639;53.634;9.880;2023-07-22T02:38:56;17.23;;;8.68;;
39958;SDS011;25639;53.634;9.880;2023-07-22T02:41:22;19.60;;;9.02;;
39958;SDS011;25639;53.634;9.880;2023-07-22T02:43:47;16.13;;;8.88;;
39958;SDS011;25639;53.634;9.880;2023-07-22T02:46:12;18.83;;;8.50;;
39958;SDS011;25639;53.634;9.880;2023-07-22T02:48:37;15.95;;;8.20;;
39958;SDS011;25639;53.634;9.880;2023-07-22T02:53:33;20.25;;;9.27;;
39958;SDS011;25639;53.634;9.880;2023-07-22T02:55:59;21.52;;;9.05;;
39958;SDS011;25639;53.634;9.880;2023-07-22T02:58:25;19.50;;;9.23;;
39958;SDS011;25639;53.634;9.880;2023-07-22T03:00:50;17.98;;;9.00;;
39958;SDS011;25639;53.634;9.880;2023-07-22T03:03:15;17.13;;;8.13;;
39958;SDS011;25639;53.634;9.880;2023-07-22T03:05:40;23.80;;;9.48;;
39958;SDS011;25639;53.634;9.880;2023-07-22T03:08:06;17.38;;;8.43;;
39958;SDS011;25639;53.634;9.880;2023-07-22T03:10:32;19.55;;;7.97;;
39958;SDS011;25639;53.634;9.880;2023-07-22T03:12:57;14.85;;;8.50;;
39958;SDS011;25639;53.634;9.880;2023-07-22T03:15:24;20.25;;;8.68;;
39958;SDS011;25639;53.634;9.880;2023-07-22T03:17:53;19.05;;;9.18;;
39958;SDS011;25639;53.634;9.880;2023-07-22T03:20:24;19.77;;;9.20;;
39958;SDS011;25639;53.634;9.880;2023-07-22T03:22:52;19.35;;;9.18;;
39958;SDS011;25639;53.634;9.880;2023-07-22T03:25:19;21.52;;;9.00;;
39958;SDS011;25639;53.634;9.880;2023-07-22T03:27:45;21.15;;;9.18;;
39958;SDS011;25639;53.634;9.880;2023-07-22T03:30:11;23.00;;;9.18;;
39958;SDS011;25639;53.634;9.880;2023-07-22T03:32:43;19.00;;;8.70;;
39958;SDS011;25639;53.634;9.880;2023-07-22T03:35:09;19.10;;;8.63;;
39958;SDS011;25639;53.634;9.880;2023-07-22T03:37:40;18.40;;;9.27;;
39958;SDS011;25639;53.634;9.880;2023-07-22T03:40:09;24.85;;;10.00;;
39958;SDS011;25639;53.634;9.880;2023-07-22T03:43:07;19.33;;;9.55;;
39958;SDS011;25639;53.634;9.880;2023-07-22T03:45:32;17.25;;;8.45;;
39958;SDS011;25639;53.634;9.880;2023-07-22T03:47:58;18.77;;;9.15;;
39958;SDS011;25639;53.634;9.880;2023-07-22T03:50:25;18.63;;;8.80;;
39958;SDS011;25639;53.634;9.880;2023-07-22T03:52:51;23.50;;;9.68;;
39958;SDS011;25639;53.634;9.880;2023-07-22T03:55:16;18.98;;;8.57;;
39958;SDS011;25639;53.634;9.880;2023-07-22T03:57:41;16.83;;;8.80;;
39958;SDS011;25639;53.634;9.880;2023-07-22T04:00:07;19.35;;;8.52;;
39958;SDS011;25639;53.634;9.880;2023-07-22T04:02:35;22.52;;;8.75;;
39958;SDS011;25639;53.634;9.880;2023-07-22T04:05:00;18.83;;;9.02;;
39958;SDS011;25639;53.634;9.880;2023-07-22T04:07:26;20.25;;;9.02;;
39958;SDS011;25639;53.634;9.880;2023-07-22T04:09:51;17.25;;;8.73;;
39958;SDS011;25639;53.634;9.880;2023-07-22T04:12:16;19.98;;;9.27;;
39958;SDS011;25639;53.634;9.880;2023-07-22T04:14:42;17.58;;;8.43;;
39958;SDS011;25639;53.634;9.880;2023-07-22T04:17:07;26.88;;;9.75;;
39958;SDS011;25639;53.634;9.880;2023-07-22T04:19:40;17.95;;;8.57;;
39958;SDS011;25639;53.634;9.880;2023-07-22T04:22:17;19.42;;;8.90;;
39958;SDS011;25639;53.634;9.880;2023-07-22T04:24:48;25.63;;;9.30;;
39958;SDS011;25639;53.634;9.880;2023-07-22T04:27:20;17.17;;;7.47;;
39958;SDS011;25639;53.634;9.880;2023-07-22T04:29:48;18.35;;;7.50;;
39958;SDS011;25639;53.634;9.880;2023-07-22T04:32:13;18.38;;;8.10;;
39958;SDS011;25639;53.634;9.880;2023-07-22T04:34:39;15.63;;;7.82;;
39958;SDS011;25639;53.634;9.880;2023-07-22T04:37:04;22.98;;;8.73;;
39958;SDS011;25639;53.634;9.880;2023-07-22T04:39:30;21.52;;;7.93;;
39958;SDS011;25639;53.634;9.880;2023-07-22T04:41:58;22.40;;;8.52;;
39958;SDS011;25639;53.634;9.880;2023-07-22T04:44:23;17.63;;;8.10;;
39958;SDS011;25639;53.634;9.880;2023-07-22T04:46:49;17.48;;;7.63;;
39958;SDS011;25639;53.634;9.880;2023-07-22T04:49:14;24.60;;;8.55;;
39958;SDS011;25639;53.634;9.880;2023-07-22T04:51:46;18.80;;;8.38;;
39958;SDS011;25639;53.634;9.880;2023-07-22T04:54:12;21.63;;;9.18;;
39958;SDS011;25639;53.634;9.880;2023-07-22T04:56:38;20.92;;;8.48;;
39958;SDS011;25639;53.634;9.880;2023-07-22T04:59:06;17.13;;;9.05;;
39958;SDS011;25639;53.634;9.880;2023-07-22T05:01:35;21.58;;;9.10;;
39958;SDS011;25639;53.634;9.880;2023-07-22T05:04:00;18.77;;;8.82;;
39958;SDS011;25639;53.634;9.880;2023-07-22T05:06:26;18.23;;;8.48;;
39958;SDS011;25639;53.634;9.880;2023-07-22T05:08:53;16.08;;;8.05;;
39958;SDS011;25639;53.634;9.880;2023-07-22T05:11:18;18.42;;;8.55;;
39958;SDS011;25639;53.634;9.880;2023-07-22T05:13:48;15.60;;;8.52;;
39958;SDS011;25639;53.634;9.880;2023-07-22T05:16:14;14.40;;;7.90;;
39958;SDS011;25639;53.634;9.880;2023-07-22T05:18:39;17.73;;;8.50;;
39958;SDS011;25639;53.634;9.880;2023-07-22T05:21:07;14.52;;;7.95;;
39958;SDS011;25639;53.634;9.880;2023-07-22T05:23:33;16.73;;;8.68;;
39958;SDS011;25639;53.634;9.880;2023-07-22T05:26:02;16.13;;;7.50;;
39958;SDS011;25639;53.634;9.880;2023-07-22T05:28:30;13.57;;;6.78;;
39958;SDS011;25639;53.634;9.880;2023-07-22T05:30:56;19.00;;;7.97;;
39958;SDS011;25639;53.634;9.880;2023-07-22T05:33:21;14.90;;;6.95;;
39958;SDS011;25639;53.634;9.880;2023-07-22T05:35:47;16.85;;;7.07;;
39958;SDS011;25639;53.634;9.880;2023-07-22T05:38:18;13.90;;;6.72;;
39958;SDS011;25639;53.634;9.880;2023-07-22T05:40:43;16.38;;;5.90;;
39958;SDS011;25639;53.634;9.880;2023-07-22T05:43:18;15.50;;;5.68;;
39958;SDS011;25639;53.634;9.880;2023-07-22T05:45:46;11.40;;;5.07;;
39958;SDS011;25639;53.634;9.880;2023-07-22T05:48:14;14.45;;;5.30;;
39958;SDS011;25639;53.634;9.880;2023-07-22T05:50:42;13.23;;;5.25;;
39958;SDS011;25639;53.634;9.880;2023-07-22T05:53:11;9.48;;;4.95;;
39958;SDS011;25639;53.634;9.880;2023-07-22T05:55:43;9.20;;;5.07;;
39958;SDS011;25639;53.634;9.880;2023-07-22T05:58:14;9.75;;;4.90;;
39958;SDS011;25639;53.634;9.880;2023-07-22T06:00:44;9.68;;;4.82;;
39958;SDS011;25639;53.634;9.880;2023-07-22T06:03:09;9.95;;;4.82;;
39958;SDS011;25639;53.634;9.880;2023-07-22T06:05:37;13.43;;;4.95;;
39958;SDS011;25639;53.634;9.880;2023-07-22T06:08:09;10.20;;;4.28;;
39958;SDS011;25639;53.634;9.880;2023-07-22T06:10:41;9.68;;;4.63;;
39958;SDS011;25639;53.634;9.880;2023-07-22T06:13:09;8.18;;;4.82;;
39958;SDS011;25639;53.634;9.880;2023-07-22T06:18:07;8.18;;;4.45;;
39958;SDS011;25639;53.634;9.880;2023-07-22T06:20:35;7.95;;;4.03;;
39958;SDS011;25639;53.634;9.880;2023-07-22T06:23:02;7.53;;;3.60;;
39958;SDS011;25639;53.634;9.880;2023-07-22T06:25:30;8.77;;;3.90;;
39958;SDS011;25639;53.634;9.880;2023-07-22T06:27:56;7.07;;;3.92;;
39958;SDS011;25639;53.634;9.880;2023-07-22T06:30:24;7.13;;;3.53;;
39958;SDS011;25639;53.634;9.880;2023-07-22T06:32:56;6.75;;;3.97;;
39958;SDS011;25639;53.634;9.880;2023-07-22T06:35:21;9.02;;;3.85;;
39958;SDS011;25639;53.634;9.880;2023-07-22T06:37:47;7.25;;;3.55;;
39958;SDS011;25639;53.634;9.880;2023-07-22T06:40:12;6.95;;;4.00;;
39958;SDS011;25639;53.634;9.880;2023-07-22T06:42:41;5.65;;;3.63;;
39958;SDS011;25639;53.634;9.880;2023-07-22T06:45:09;6.47;;;3.63;;
39958;SDS011;25639;53.634;9.880;2023-07-22T06:47:37;6.35;;;3.55;;
39958;SDS011;25639;53.634;9.880;2023-07-22T06:50:03;5.65;;;2.83;;
39958;SDS011;25639;53.634;9.880;2023-07-22T06:52:30;13.82;;;3.10;;
39958;SDS011;25639;53.634;9.880;2023-07-22T06:54:56;5.35;;;2.63;;
39958;SDS011;25639;53.634;9.880;2023-07-22T06:57:24;6.78;;;2.83;;
39958;SDS011;25639;53.634;9.880;2023-07-22T06:59:51;5.82;;;2.72;;
39958;SDS011;25639;53.634;9.880;2023-07-22T07:02:18;5.05;;;2.83;;
39958;SDS011;25639;53.634;9.880;2023-07-22T07:04:44;5.75;;;2.40;;
39958;SDS011;25639;53.634;9.880;2023-07-22T07:07:13;4.60;;;2.70;;
39958;SDS011;25639;53.634;9.880;2023-07-22T07:09:42;7.50;;;2.60;;
39958;SDS011;25639;53.634;9.880;2023-07-22T07:12:07;6.88;;;2.05;;
39958;SDS011;25639;53.634;9.880;2023-07-22T07:14:33;3.88;;;2.10;;
39958;SDS011;25639;53.634;9.880;2023-07-22T07:16:59;6.78;;;2.40;;
39958;SDS011;25639;53.634;9.880;2023-07-22T07:19:25;5.82;;;1.85;;
39958;SDS011;25639;53.634;9.880;2023-07-22T07:21:51;6.40;;;2.40;;
39958;SDS011;25639;53.634;9.880;2023-07-22T07:24:16;6.70;;;2.15;;
39958;SDS011;25639;53.634;9.880;2023-07-22T07:26:42;4.10;;;2.13;;
39958;SDS011;25639;53.634;9.880;2023-07-22T07:29:07;4.55;;;2.28;;
39958;SDS011;25639;53.634;9.880;2023-07-22T07:31:33;7.50;;;1.80;;
39958;SDS011;25639;53.634;9.880;2023-07-22T07:33:58;2.88;;;1.55;;
39958;SDS011;25639;53.634;9.880;2023-07-22T07:36:23;2.88;;;1.80;;
39958;SDS011;25639;53.634;9.880;2023-07-22T07:38:49;2.40;;;1.40;;
39958;SDS011;25639;53.634;9.880;2023-07-22T07:41:14;2.13;;;1.55;;
39958;SDS011;25639;53.634;9.880;2023-07-22T07:43:40;2.55;;;1.42;;
39958;SDS011;25639;53.634;9.880;2023-07-22T07:48:43;5.18;;;1.40;;
39958;SDS011;25639;53.634;9.880;2023-07-22T07:51:16;3.50;;;1.45;;
39958;SDS011;25639;53.634;9.880;2023-07-22T07:53:43;5.25;;;1.73;;
39958;SDS011;25639;53.634;9.880;2023-07-22T07:56:09;3.20;;;1.52;;
39958;SDS011;25639;53.634;9.880;2023-07-22T07:58:35;2.97;;;1.20;;
39958;SDS011;25639;53.634;9.880;2023-07-22T08:01:01;2.53;;;1.30;;
39958;SDS011;25639;53.634;9.880;2023-07-22T08:03:30;4.00;;;1.35;;
39958;SDS011;25639;53.634;9.880;2023-07-22T08:05:56;2.80;;;1.40;;
39958;SDS011;25639;53.634;9.880;2023-07-22T08:08:21;2.50;;;1.35;;
39958;SDS011;25639;53.634;9.880;2023-07-22T08:10:47;6.32;;;1.70;;
39958;SDS011;25639;53.634;9.880;2023-07-22T08:13:13;4.35;;;1.60;;
39958;SDS011;25639;53.634;9.880;2023-07-22T08:15:41;5.40;;;1.27;;
39958;SDS011;25639;53.634;9.880;2023-07-22T08:18:07;4.45;;;1.33;;
39958;SDS011;25639;53.634;9.880;2023-07-22T08:20:38;4.13;;;1.70;;
39958;SDS011;25639;53.634;9.880;2023-07-22T08:23:03;5.88;;;1.88;;
39958;SDS011;25639;53.634;9.880;2023-07-22T08:25:29;3.03;;;2.25;;
39958;SDS011;25639;53.634;9.880;2023-07-22T08:27:54;4.20;;;1.92;;
39958;SDS011;25639;53.634;9.880;2023-07-22T08:30:19;3.92;;;1.30;;
39958;SDS011;25639;53.634;9.880;2023-07-22T08:32:44;4.43;;;1.20;;
39958;SDS011;25639;53.634;9.880;2023-07-22T08:35:13;4.93;;;1.80;;
39958;SDS011;25639;53.634;9.880;2023-07-22T08:37:38;3.17;;;1.30;;
39958;SDS011;25639;53.634;9.880;2023-07-22T08:40:04;2.83;;;1.38;;
39958;SDS011;25639;53.634;9.880;2023-07-22T08:42:31;2.53;;;1.20;;
39958;SDS011;25639;53.634;9.880;2023-07-22T08:44:57;8.13;;;1.40;;
39958;SDS011;25639;53.634;9.880;2023-07-22T08:47:26;2.80;;;1.15;;
39958;SDS011;25639;53.634;9.880;2023-07-22T08:49:55;1.98;;;1.10;;
39958;SDS011;25639;53.634;9.880;2023-07-22T08:52:22;2.63;;;1.10;;
39958;SDS011;25639;53.634;9.880;2023-07-22T08:54:49;2.17;;;1.10;;
39958;SDS011;25639;53.634;9.880;2023-07-22T08:57:15;2.03;;;1.15;;
39958;SDS011;25639;53.634;9.880;2023-07-22T08:59:41;2.22;;;1.15;;
39958;SDS011;25639;53.634;9.880;2023-07-22T09:02:08;3.10;;;1.23;;
39958;SDS011;25639;53.634;9.880;2023-07-22T09:04:37;2.85;;;1.10;;
39958;SDS011;25639;53.634;9.880;2023-07-22T09:07:03;3.22;;;0.80;;
39958;SDS011;25639;53.634;9.880;2023-07-22T09:09:29;4.03;;;1.30;;
39958;SDS011;25639;53.634;9.880;2023-07-22T09:11:55;2.97;;;1.02;;
39958;SDS011;25639;53.634;9.880;2023-07-22T09:14:21;2.20;;;1.20;;
39958;SDS011;25639;53.634;9.880;2023-07-22T09:16:47;3.65;;;1.17;;
39958;SDS011;25639;53.634;9.880;2023-07-22T09:19:12;4.60;;;1.40;;
39958;SDS011;25639;53.634;9.880;2023-07-22T09:21:38;2.83;;;1.10;;
39958;SDS011;25639;53.634;9.880;2023-07-22T09:27:04;3.35;;;0.90;;
39958;SDS011;25639;53.634;9.880;2023-07-22T09:29:33;2.38;;;0.98;;
39958;SDS011;25639;53.634;9.880;2023-07-22T09:32:03;1.80;;;1.20;;
39958;SDS011;25639;53.634;9.880;2023-07-22T09:34:29;4.57;;;1.20;;
39958;SDS011;25639;53.634;9.880;2023-07-22T09:36:55;2.25;;;1.10;;
39958;SDS011;25639;53.634;9.880;2023-07-22T09:39:22;1.90;;;1.17;;
39958;SDS011;25639;53.634;9.880;2023-07-22T09:41:49;7.63;;;1.65;;
39958;SDS011;25639;53.634;9.880;2023-07-22T09:44:15;4.25;;;1.45;;
39958;SDS011;25639;53.634;9.880;2023-07-22T09:46:40;3.33;;;1.00;;
39958;SDS011;25639;53.634;9.880;2023-07-22T09:49:07;1.35;;;0.93;;
39958;SDS011;25639;53.634;9.880;2023-07-22T09:51:39;1.95;;;0.90;;
39958;SDS011;25639;53.634;9.880;2023-07-22T09:54:05;3.67;;;1.27;;
39958;SDS011;25639;53.634;9.880;2023-07-22T09:56:47;1.13;;;1.02;;
39958;SDS011;25639;53.634;9.880;2023-07-22T09:59:14;4.63;;;1.35;;
39958;SDS011;25639;53.634;9.880;2023-07-22T10:01:46;3.97;;;1.50;;
39958;SDS011;25639;53.634;9.880;2023-07-22T10:04:16;3.45;;;1.38;;
39958;SDS011;25639;53.634;9.880;2023-07-22T10:06:43;1.52;;;0.82;;
39958;SDS011;25639;53.634;9.880;2023-07-22T10:09:10;2.63;;;1.08;;
39958;SDS011;25639;53.634;9.880;2023-07-22T10:11:40;1.30;;;1.20;;
39958;SDS011;25639;53.634;9.880;2023-07-22T10:14:05;3.42;;;1.40;;
39958;SDS011;25639;53.634;9.880;2023-07-22T10:16:35;3.35;;;1.38;;
39958;SDS011;25639;53.634;9.880;2023-07-22T10:19:01;6.35;;;2.15;;
39958;SDS011;25639;53.634;9.880;2023-07-22T10:21:27;152.50;;;30.77;;
39958;SDS011;25639;53.634;9.880;2023-07-22T10:23:53;4.80;;;1.40;;
39958;SDS011;25639;53.634;9.880;2023-07-22T10:26:23;2.42;;;1.40;;
39958;SDS011;25639;53.634;9.880;2023-07-22T10:28:48;3.33;;;1.27;;
39958;SDS011;25639;53.634;9.880;2023-07-22T10:31:14;5.05;;;1.27;;
39958;SDS011;25639;53.634;9.880;2023-07-22T10:33:44;3.17;;;1.48;;
39958;SDS011;25639;53.634;9.880;2023-07-22T10:36:15;4.10;;;1.10;;
39958;SDS011;25639;53.634;9.880;2023-07-22T10:38:41;2.15;;;1.40;;
39958;SDS011;25639;53.634;9.880;2023-07-22T10:41:11;2.22;;;1.40;;
39958;SDS011;25639;53.634;9.880;2023-07-22T10:43:53;2.83;;;1.55;;
39958;SDS011;25639;53.634;9.880;2023-07-22T10:46:30;3.83;;;1.50;;
39958;SDS011;25639;53.634;9.880;2023-07-22T10:49:09;1.60;;;1.30;;
39958;SDS011;25639;53.634;9.880;2023-07-22T10:51:41;3.67;;;1.67;;
39958;SDS011;25639;53.634;9.880;2023-07-22T10:54:12;3.95;;;1.70;;
39958;SDS011;25639;53.634;9.880;2023-07-22T10:56:40;2.70;;;1.42;;
39958;SDS011;25639;53.634;9.880;2023-07-22T10:59:09;6.15;;;1.70;;
39958;SDS011;25639;53.634;9.880;2023-07-22T11:01:36;2.22;;;1.65;;
39958;SDS011;25639;53.634;9.880;2023-07-22T11:04:09;3.38;;;1.75;;
39958;SDS011;25639;53.634;9.880;2023-07-22T11:06:56;2.35;;;1.50;;
39958;SDS011;25639;53.634;9.880;2023-07-22T11:12:10;2.97;;;1.90;;
39958;SDS011;25639;53.634;9.880;2023-07-22T11:14:38;3.55;;;2.10;;
39958;SDS011;25639;53.634;9.880;2023-07-22T11:17:09;5.82;;;2.22;;
39958;SDS011;25639;53.634;9.880;2023-07-22T11:19:39;3.65;;;2.03;;
39958;SDS011;25639;53.634;9.880;2023-07-22T11:22:05;3.90;;;2.20;;
39958;SDS011;25639;53.634;9.880;2023-07-22T11:24:34;4.72;;;2.35;;
39958;SDS011;25639;53.634;9.880;2023-07-22T11:27:02;5.30;;;1.90;;
39958;SDS011;25639;53.634;9.880;2023-07-22T11:29:29;6.72;;;2.70;;
39958;SDS011;25639;53.634;9.880;2023-07-22T11:31:55;3.97;;;2.78;;
39958;SDS011;25639;53.634;9.880;2023-07-22T11:34:23;5.55;;;2.88;;
39958;SDS011;25639;53.634;9.880;2023-07-22T11:36:53;9.35;;;3.28;;
39958;SDS011;25639;53.634;9.880;2023-07-22T11:39:29;10.63;;;3.10;;
39958;SDS011;25639;53.634;9.880;2023-07-22T11:41:57;8.07;;;3.63;;
39958;SDS011;25639;53.634;9.880;2023-07-22T11:44:26;12.65;;;3.65;;
39958;SDS011;25639;53.634;9.880;2023-07-22T11:46:54;6.88;;;3.55;;
39958;SDS011;25639;53.634;9.880;2023-07-22T11:52:06;8.90;;;3.38;;
39958;SDS011;25639;53.634;9.880;2023-07-22T11:54:33;6.85;;;3.30;;
39958;SDS011;25639;53.634;9.880;2023-07-22T11:59:51;5.70;;;2.90;;
39958;SDS011;25639;53.634;9.880;2023-07-22T12:02:22;11.57;;;3.45;;
39958;SDS011;25639;53.634;9.880;2023-07-22T12:07:26;6.05;;;3.28;;
39958;SDS011;25639;53.634;9.880;2023-07-22T12:09:54;22.98;;;4.68;;
39958;SDS011;25639;53.634;9.880;2023-07-22T12:12:20;7.47;;;3.97;;
39958;SDS011;25639;53.634;9.880;2023-07-22T12:14:46;5.70;;;3.88;;
39958;SDS011;25639;53.634;9.880;2023-07-22T12:17:11;6.82;;;3.88;;
39958;SDS011;25639;53.634;9.880;2023-07-22T12:19:36;5.75;;;4.00;;
39958;SDS011;25639;53.634;9.880;2023-07-22T12:22:02;8.93;;;4.30;;
39958;SDS011;25639;53.634;9.880;2023-07-22T12:24:28;8.40;;;4.45;;
39958;SDS011;25639;53.634;9.880;2023-07-22T12:26:54;7.05;;;4.20;;
39958;SDS011;25639;53.634;9.880;2023-07-22T12:29:20;8.18;;;5.00;;
39958;SDS011;25639;53.634;9.880;2023-07-22T12:31:47;8.95;;;4.85;;
39958;SDS011;25639;53.634;9.880;2023-07-22T12:34:12;10.98;;;5.07;;
39958;SDS011;25639;53.634;9.880;2023-07-22T12:36:37;11.80;;;5.43;;
39958;SDS011;25639;53.634;9.880;2023-07-22T12:39:03;9.02;;;5.22;;
39958;SDS011;25639;53.634;9.880;2023-07-22T12:41:28;8.98;;;5.25;;
39958;SDS011;25639;53.634;9.880;2023-07-22T12:43:53;11.68;;;5.35;;
39958;SDS011;25639;53.634;9.880;2023-07-22T12:46:18;9.95;;;5.60;;
39958;SDS011;25639;53.634;9.880;2023-07-22T12:48:44;8.77;;;5.68;;
39958;SDS011;25639;53.634;9.880;2023-07-22T12:51:09;12.05;;;5.90;;
39958;SDS011;25639;53.634;9.880;2023-07-22T12:53:34;11.20;;;6.10;;
39958;SDS011;25639;53.634;9.880;2023-07-22T12:56:00;8.52;;;5.65;;
39958;SDS011;25639;53.634;9.880;2023-07-22T12:58:28;9.85;;;5.60;;
39958;SDS011;25639;53.634;9.880;2023-07-22T13:00:53;12.85;;;6.70;;
39958;SDS011;25639;53.634;9.880;2023-07-22T13:03:19;9.80;;;6.43;;
39958;SDS011;25639;53.634;9.880;2023-07-22T13:05:44;12.90;;;6.10;;
39958;SDS011;25639;53.634;9.880;2023-07-22T13:08:09;7.68;;;5.47;;
39958;SDS011;25639;53.634;9.880;2023-07-22T13:10:37;11.05;;;6.47;;
39958;SDS011;25639;53.634;9.880;2023-07-22T13:13:04;9.50;;;6.45;;
39958;SDS011;25639;53.634;9.880;2023-07-22T13:15:30;10.02;;;6.15;;
39958;SDS011;25639;53.634;9.880;2023-07-22T13:17:55;8.25;;;5.65;;
39958;SDS011;25639;53.634;9.880;2023-07-22T13:20:20;7.78;;;5.80;;
39958;SDS011;25639;53.634;9.880;2023-07-22T13:22:46;11.38;;;6.63;;
39958;SDS011;25639;53.634;9.880;2023-07-22T13:25:11;8.75;;;6.00;;
39958;SDS011;25639;53.634;9.880;2023-07-22T13:27:36;10.32;;;5.82;;
39958;SDS011;25639;53.634;9.880;2023-07-22T13:30:05;12.40;;;6.65;;
39958;SDS011;25639;53.634;9.880;2023-07-22T13:32:31;9.15;;;6.00;;
39958;SDS011;25639;53.634;9.880;2023-07-22T13:34:56;9.32;;;6.22;;
39958;SDS011;25639;53.634;9.880;2023-07-22T13:37:22;12.32;;;6.57;;
39958;SDS011;25639;53.634;9.880;2023-07-22T13:39:47;12.30;;;6.82;;
39958;SDS011;25639;53.634;9.880;2023-07-22T13:42:12;9.02;;;6.20;;
39958;SDS011;25639;53.634;9.880;2023-07-22T13:44:38;12.90;;;6.60;;
39958;SDS011;25639;53.634;9.880;2023-07-22T13:47:03;8.57;;;6.07;;
39958;SDS011;25639;53.634;9.880;2023-07-22T13:49:29;11.30;;;7.00;;
39958;SDS011;25639;53.634;9.880;2023-07-22T13:51:54;11.38;;;7.22;;
39958;SDS011;25639;53.634;9.880;2023-07-22T13:54:19;10.75;;;6.60;;
39958;SDS011;25639;53.634;9.880;2023-07-22T13:56:44;11.52;;;7.47;;
39958;SDS011;25639;53.634;9.880;2023-07-22T13:59:12;13.95;;;7.22;;
39958;SDS011;25639;53.634;9.880;2023-07-22T14:01:38;16.77;;;8.10;;
39958;SDS011;25639;53.634;9.880;2023-07-22T14:04:03;12.15;;;7.50;;
39958;SDS011;25639;53.634;9.880;2023-07-22T14:06:28;11.43;;;7.57;;
39958;SDS011;25639;53.634;9.880;2023-07-22T14:08:54;13.55;;;7.40;;
39958;SDS011;25639;53.634;9.880;2023-07-22T14:11:19;15.98;;;9.15;;
39958;SDS011;25639;53.634;9.880;2023-07-22T14:13:45;11.80;;;7.28;;
39958;SDS011;25639;53.634;9.880;2023-07-22T14:16:10;10.30;;;7.13;;
39958;SDS011;25639;53.634;9.880;2023-07-22T14:18:36;11.75;;;7.40;;
39958;SDS011;25639;53.634;9.880;2023-07-22T14:21:01;8.52;;;6.43;;
39958;SDS011;25639;53.634;9.880;2023-07-22T14:23:27;12.55;;;7.45;;
39958;SDS011;25639;53.634;9.880;2023-07-22T14:25:52;12.52;;;7.82;;
39958;SDS011;25639;53.634;9.880;2023-07-22T14:28:17;12.57;;;7.18;;
39958;SDS011;25639;53.634;9.880;2023-07-22T14:30:43;13.80;;;7.75;;
39958;SDS011;25639;53.634;9.880;2023-07-22T14:33:08;11.00;;;7.18;;
39958;SDS011;25639;53.634;9.880;2023-07-22T14:35:33;13.50;;;7.47;;
39958;SDS011;25639;53.634;9.880;2023-07-22T14:37:59;13.30;;;7.18;;
39958;SDS011;25639;53.634;9.880;2023-07-22T14:40:26;12.52;;;6.82;;
39958;SDS011;25639;53.634;9.880;2023-07-22T14:42:54;7.57;;;5.20;;
39958;SDS011;25639;53.634;9.880;2023-07-22T14:45:20;12.10;;;5.35;;
39958;SDS011;25639;53.634;9.880;2023-07-22T14:47:45;7.55;;;4.80;;
39958;SDS011;25639;53.634;9.880;2023-07-22T14:50:10;6.93;;;4.75;;
39958;SDS011;25639;53.634;9.880;2023-07-22T14:52:36;7.07;;;4.43;;
39958;SDS011;25639;53.634;9.880;2023-07-22T14:55:01;7.78;;;5.22;;
39958;SDS011;25639;53.634;9.880;2023-07-22T14:57:27;11.70;;;5.90;;
39958;SDS011;25639;53.634;9.880;2023-07-22T15:00:12;8.55;;;4.75;;